Bond, Illinois
Current Conditions -  °F | °C
As of 11:53 AM on Sunday 21 Dec 2014 (Local Time) from KLWV Reporting Station
Clear Clear  
Wind Chill: 34°   Ceiling: Unl
Heat Index: 38°   Visibility: 7mi
Dew Point: 29°   Wind: 5mph
Humidity: 70%   Direction: NA
Pressure: 30.23"   Gusts: NA
Location:  38.7501°N, 87.6141°W
Report Text: KLWV 211753Z AUTO VRB04KT 7SM CLR 03/M02 A3023 RMK AO2 SLP240 I6000 T00331017 10039 21050 58021
Loading
Personal Weather Stations






























Interactive Weather Map New forecast layout! Learn more

10-Day Weather Forecast

Advertisements
Track Severe Weather on mobile